sensor_id;sensor_type;location;lat;lon;timestamp;temperature;humidity
52787;DHT22;38661;53.152;5.846;2023-07-13T00:00:30;17.30;83.50
52787;DHT22;38661;53.152;5.846;2023-07-13T00:02:58;17.30;83.40
52787;DHT22;38661;53.152;5.846;2023-07-13T00:05:23;17.30;83.30
52787;DHT22;38661;53.152;5.846;2023-07-13T00:07:51;17.30;83.10
52787;DHT22;38661;53.152;5.846;2023-07-13T00:10:17;17.30;82.90
52787;DHT22;38661;53.152;5.846;2023-07-13T00:12:43;17.20;82.60
52787;DHT22;38661;53.152;5.846;2023-07-13T00:15:15;17.20;82.40
52787;DHT22;38661;53.152;5.846;2023-07-13T00:17:42;17.20;82.10
52787;DHT22;38661;53.152;5.846;2023-07-13T00:20:11;17.10;82.20
52787;DHT22;38661;53.152;5.846;2023-07-13T00:22:37;17.10;82.00
52787;DHT22;38661;53.152;5.846;2023-07-13T00:25:03;17.00;81.90
52787;DHT22;38661;53.152;5.846;2023-07-13T00:27:29;17.00;82.10
52787;DHT22;38661;53.152;5.846;2023-07-13T00:29:58;17.00;82.00
52787;DHT22;38661;53.152;5.846;2023-07-13T00:32:24;17.00;82.20
52787;DHT22;38661;53.152;5.846;2023-07-13T00:34:52;17.00;82.00
52787;DHT22;38661;53.152;5.846;2023-07-13T00:37:18;17.00;81.90
52787;DHT22;38661;53.152;5.846;2023-07-13T00:39:44;17.00;81.90
52787;DHT22;38661;53.152;5.846;2023-07-13T00:42:11;17.00;81.70
52787;DHT22;38661;53.152;5.846;2023-07-13T00:44:36;17.00;81.70
52787;DHT22;38661;53.152;5.846;2023-07-13T00:47:02;17.00;81.80
52787;DHT22;38661;53.152;5.846;2023-07-13T00:49:30;17.00;81.70
52787;DHT22;38661;53.152;5.846;2023-07-13T00:52:02;17.00;81.50
52787;DHT22;38661;53.152;5.846;2023-07-13T00:54:32;17.00;81.30
52787;DHT22;38661;53.152;5.846;2023-07-13T00:57:02;17.00;80.80
52787;DHT22;38661;53.152;5.846;2023-07-13T00:59:28;17.00;80.60
52787;DHT22;38661;53.152;5.846;2023-07-13T01:01:55;17.00;80.80
52787;DHT22;38661;53.152;5.846;2023-07-13T01:04:21;17.00;80.50
52787;DHT22;38661;53.152;5.846;2023-07-13T01:06:48;17.00;80.60
52787;DHT22;38661;53.152;5.846;2023-07-13T01:09:15;17.00;80.70
52787;DHT22;38661;53.152;5.846;2023-07-13T01:11:41;17.00;80.60
52787;DHT22;38661;53.152;5.846;2023-07-13T01:14:08;17.00;81.30
52787;DHT22;38661;53.152;5.846;2023-07-13T01:16:35;16.90;81.50
52787;DHT22;38661;53.152;5.846;2023-07-13T01:19:04;16.90;81.40
52787;DHT22;38661;53.152;5.846;2023-07-13T01:21:33;16.90;81.40
52787;DHT22;38661;53.152;5.846;2023-07-13T01:24:00;16.90;81.90
52787;DHT22;38661;53.152;5.846;2023-07-13T01:26:27;16.80;82.10
52787;DHT22;38661;53.152;5.846;2023-07-13T01:28:53;16.70;82.40
52787;DHT22;38661;53.152;5.846;2023-07-13T01:31:19;16.70;82.90
52787;DHT22;38661;53.152;5.846;2023-07-13T01:33:44;16.70;82.80
52787;DHT22;38661;53.152;5.846;2023-07-13T01:36:11;16.70;83.30
52787;DHT22;38661;53.152;5.846;2023-07-13T01:38:37;16.60;83.70
52787;DHT22;38661;53.152;5.846;2023-07-13T01:41:03;16.60;83.20
52787;DHT22;38661;53.152;5.846;2023-07-13T01:43:29;16.60;83.50
52787;DHT22;38661;53.152;5.846;2023-07-13T01:45:55;16.50;83.70
52787;DHT22;38661;53.152;5.846;2023-07-13T01:48:21;16.50;85.00
52787;DHT22;38661;53.152;5.846;2023-07-13T01:50:47;16.50;84.50
52787;DHT22;38661;53.152;5.846;2023-07-13T01:53:13;16.50;84.10
52787;DHT22;38661;53.152;5.846;2023-07-13T01:55:39;16.50;84.20
52787;DHT22;38661;53.152;5.846;2023-07-13T01:58:05;16.50;84.30
52787;DHT22;38661;53.152;5.846;2023-07-13T02:00:31;16.50;84.30
52787;DHT22;38661;53.152;5.846;2023-07-13T02:02:57;16.50;84.80
52787;DHT22;38661;53.152;5.846;2023-07-13T02:05:22;16.50;85.80
52787;DHT22;38661;53.152;5.846;2023-07-13T02:07:48;16.50;85.60
52787;DHT22;38661;53.152;5.846;2023-07-13T02:10:14;16.40;85.90
52787;DHT22;38661;53.152;5.846;2023-07-13T02:12:41;16.40;85.70
52787;DHT22;38661;53.152;5.846;2023-07-13T02:15:07;16.30;86.30
52787;DHT22;38661;53.152;5.846;2023-07-13T02:17:34;16.40;85.90
52787;DHT22;38661;53.152;5.846;2023-07-13T02:20:00;16.30;86.30
52787;DHT22;38661;53.152;5.846;2023-07-13T02:22:26;16.30;86.50
52787;DHT22;38661;53.152;5.846;2023-07-13T02:24:52;16.20;86.90
52787;DHT22;38661;53.152;5.846;2023-07-13T02:27:18;16.20;87.40
52787;DHT22;38661;53.152;5.846;2023-07-13T02:29:44;16.10;87.60
52787;DHT22;38661;53.152;5.846;2023-07-13T02:32:10;16.20;87.10
52787;DHT22;38661;53.152;5.846;2023-07-13T02:34:35;16.00;88.30
52787;DHT22;38661;53.152;5.846;2023-07-13T02:37:01;16.10;87.20
52787;DHT22;38661;53.152;5.846;2023-07-13T02:39:28;16.10;88.30
52787;DHT22;38661;53.152;5.846;2023-07-13T02:41:54;16.00;88.30
52787;DHT22;38661;53.152;5.846;2023-07-13T02:44:19;16.00;88.40
52787;DHT22;38661;53.152;5.846;2023-07-13T02:46:45;16.10;88.30
52787;DHT22;38661;53.152;5.846;2023-07-13T02:49:11;16.10;88.20
52787;DHT22;38661;53.152;5.846;2023-07-13T02:51:36;16.20;88.00
52787;DHT22;38661;53.152;5.846;2023-07-13T02:54:03;16.20;88.00
52787;DHT22;38661;53.152;5.846;2023-07-13T02:56:30;16.20;88.70
52787;DHT22;38661;53.152;5.846;2023-07-13T02:58:56;16.20;88.50
52787;DHT22;38661;53.152;5.846;2023-07-13T03:01:22;16.20;89.40
52787;DHT22;38661;53.152;5.846;2023-07-13T03:03:49;16.20;88.90
52787;DHT22;38661;53.152;5.846;2023-07-13T03:06:16;16.30;89.00
52787;DHT22;38661;53.152;5.846;2023-07-13T03:08:43;16.20;89.20
52787;DHT22;38661;53.152;5.846;2023-07-13T03:11:12;16.30;89.40
52787;DHT22;38661;53.152;5.846;2023-07-13T03:13:41;16.40;89.30
52787;DHT22;38661;53.152;5.846;2023-07-13T03:16:09;16.30;89.40
52787;DHT22;38661;53.152;5.846;2023-07-13T03:18:36;16.40;89.60
52787;DHT22;38661;53.152;5.846;2023-07-13T03:21:02;16.30;89.80
52787;DHT22;38661;53.152;5.846;2023-07-13T03:23:28;16.30;89.80
52787;DHT22;38661;53.152;5.846;2023-07-13T03:26:20;16.20;90.30
52787;DHT22;38661;53.152;5.846;2023-07-13T03:28:47;16.20;90.30
52787;DHT22;38661;53.152;5.846;2023-07-13T03:31:18;16.10;90.20
52787;DHT22;38661;53.152;5.846;2023-07-13T03:33:44;16.20;90.10
52787;DHT22;38661;53.152;5.846;2023-07-13T03:36:14;16.10;90.70
52787;DHT22;38661;53.152;5.846;2023-07-13T03:38:41;16.10;90.30
52787;DHT22;38661;53.152;5.846;2023-07-13T03:41:07;16.10;90.50
52787;DHT22;38661;53.152;5.846;2023-07-13T03:43:33;16.00;90.60
52787;DHT22;38661;53.152;5.846;2023-07-13T03:45:58;16.00;90.30
52787;DHT22;38661;53.152;5.846;2023-07-13T03:48:24;16.00;90.40
52787;DHT22;38661;53.152;5.846;2023-07-13T03:50:50;16.00;90.40
52787;DHT22;38661;53.152;5.846;2023-07-13T03:53:16;16.00;90.30
52787;DHT22;38661;53.152;5.846;2023-07-13T03:55:41;16.00;90.40
52787;DHT22;38661;53.152;5.846;2023-07-13T04:00:56;16.00;90.30
52787;DHT22;38661;53.152;5.846;2023-07-13T04:03:23;16.00;90.20
52787;DHT22;38661;53.152;5.846;2023-07-13T04:05:49;16.00;90.40
52787;DHT22;38661;53.152;5.846;2023-07-13T04:08:15;16.00;90.30
52787;DHT22;38661;53.152;5.846;2023-07-13T04:10:41;16.00;90.30
52787;DHT22;38661;53.152;5.846;2023-07-13T04:13:06;16.00;90.40
52787;DHT22;38661;53.152;5.846;2023-07-13T04:15:32;15.90;90.50
52787;DHT22;38661;53.152;5.846;2023-07-13T04:17:58;15.80;90.60
52787;DHT22;38661;53.152;5.846;2023-07-13T04:20:25;15.80;90.60
52787;DHT22;38661;53.152;5.846;2023-07-13T04:22:51;15.80;90.60
52787;DHT22;38661;53.152;5.846;2023-07-13T04:25:20;15.80;90.90
52787;DHT22;38661;53.152;5.846;2023-07-13T04:27:45;15.80;91.10
52787;DHT22;38661;53.152;5.846;2023-07-13T04:30:11;15.80;90.90
52787;DHT22;38661;53.152;5.846;2023-07-13T04:32:37;15.80;91.00
52787;DHT22;38661;53.152;5.846;2023-07-13T04:35:03;15.80;91.30
52787;DHT22;38661;53.152;5.846;2023-07-13T04:37:29;15.80;91.00
52787;DHT22;38661;53.152;5.846;2023-07-13T04:39:55;15.80;91.10
52787;DHT22;38661;53.152;5.846;2023-07-13T04:42:22;15.90;91.20
52787;DHT22;38661;53.152;5.846;2023-07-13T04:44:51;15.90;91.10
52787;DHT22;38661;53.152;5.846;2023-07-13T04:47:17;15.90;91.10
52787;DHT22;38661;53.152;5.846;2023-07-13T04:49:44;16.00;90.90
52787;DHT22;38661;53.152;5.846;2023-07-13T04:52:09;16.00;90.80
52787;DHT22;38661;53.152;5.846;2023-07-13T04:54:35;16.00;91.00
52787;DHT22;38661;53.152;5.846;2023-07-13T04:57:05;16.00;90.80
52787;DHT22;38661;53.152;5.846;2023-07-13T04:59:32;16.10;90.90
52787;DHT22;38661;53.152;5.846;2023-07-13T05:01:58;16.20;90.80
52787;DHT22;38661;53.152;5.846;2023-07-13T05:04:24;16.20;90.60
52787;DHT22;38661;53.152;5.846;2023-07-13T05:06:50;16.30;90.50
52787;DHT22;38661;53.152;5.846;2023-07-13T05:09:16;16.30;90.40
52787;DHT22;38661;53.152;5.846;2023-07-13T05:11:42;16.40;90.20
52787;DHT22;38661;53.152;5.846;2023-07-13T05:14:08;16.50;89.90
52787;DHT22;38661;53.152;5.846;2023-07-13T05:16:35;16.50;89.90
52787;DHT22;38661;53.152;5.846;2023-07-13T05:19:01;16.60;89.90
52787;DHT22;38661;53.152;5.846;2023-07-13T05:21:27;16.70;89.60
52787;DHT22;38661;53.152;5.846;2023-07-13T05:23:53;16.70;89.20
52787;DHT22;38661;53.152;5.846;2023-07-13T05:26:18;16.80;89.00
52787;DHT22;38661;53.152;5.846;2023-07-13T05:28:46;16.90;88.70
52787;DHT22;38661;53.152;5.846;2023-07-13T05:31:12;17.00;88.40
52787;DHT22;38661;53.152;5.846;2023-07-13T05:33:38;17.00;87.80
52787;DHT22;38661;53.152;5.846;2023-07-13T05:36:04;17.10;87.70
52787;DHT22;38661;53.152;5.846;2023-07-13T05:38:30;17.10;87.30
52787;DHT22;38661;53.152;5.846;2023-07-13T05:40:57;17.20;87.00
52787;DHT22;38661;53.152;5.846;2023-07-13T05:43:22;17.40;86.40
52787;DHT22;38661;53.152;5.846;2023-07-13T05:45:48;17.40;86.20
52787;DHT22;38661;53.152;5.846;2023-07-13T05:48:15;17.40;85.80
52787;DHT22;38661;53.152;5.846;2023-07-13T05:50:41;17.50;85.40
52787;DHT22;38661;53.152;5.846;2023-07-13T05:53:07;17.50;85.10
52787;DHT22;38661;53.152;5.846;2023-07-13T05:55:32;17.60;84.30
52787;DHT22;38661;53.152;5.846;2023-07-13T05:58:00;17.80;84.00
52787;DHT22;38661;53.152;5.846;2023-07-13T06:00:26;17.90;83.20
52787;DHT22;38661;53.152;5.846;2023-07-13T06:02:52;17.90;82.90
52787;DHT22;38661;53.152;5.846;2023-07-13T06:05:18;18.00;82.40
52787;DHT22;38661;53.152;5.846;2023-07-13T06:07:44;18.00;82.20
52787;DHT22;38661;53.152;5.846;2023-07-13T06:10:10;18.00;81.70
52787;DHT22;38661;53.152;5.846;2023-07-13T06:12:35;18.00;81.60
52787;DHT22;38661;53.152;5.846;2023-07-13T06:15:01;18.10;81.40
52787;DHT22;38661;53.152;5.846;2023-07-13T06:17:28;18.20;81.50
52787;DHT22;38661;53.152;5.846;2023-07-13T06:19:53;18.30;81.10
52787;DHT22;38661;53.152;5.846;2023-07-13T06:22:19;18.30;81.10
52787;DHT22;38661;53.152;5.846;2023-07-13T06:24:45;18.40;80.60
52787;DHT22;38661;53.152;5.846;2023-07-13T06:27:10;18.50;80.20
52787;DHT22;38661;53.152;5.846;2023-07-13T06:29:36;18.50;79.80
52787;DHT22;38661;53.152;5.846;2023-07-13T06:32:02;18.50;79.60
52787;DHT22;38661;53.152;5.846;2023-07-13T06:34:28;18.60;78.90
52787;DHT22;38661;53.152;5.846;2023-07-13T06:36:53;18.60;78.80
52787;DHT22;38661;53.152;5.846;2023-07-13T06:39:19;18.70;78.40
52787;DHT22;38661;53.152;5.846;2023-07-13T06:41:45;18.70;77.40
52787;DHT22;38661;53.152;5.846;2023-07-13T06:44:10;18.80;76.90
52787;DHT22;38661;53.152;5.846;2023-07-13T06:46:36;18.80;75.80
52787;DHT22;38661;53.152;5.846;2023-07-13T06:49:02;18.90;75.60
52787;DHT22;38661;53.152;5.846;2023-07-13T06:51:27;18.90;75.60
52787;DHT22;38661;53.152;5.846;2023-07-13T06:53:53;19.00;75.00
52787;DHT22;38661;53.152;5.846;2023-07-13T06:56:19;19.00;74.30
52787;DHT22;38661;53.152;5.846;2023-07-13T06:58:45;19.00;74.20
52787;DHT22;38661;53.152;5.846;2023-07-13T07:01:11;19.00;74.10
52787;DHT22;38661;53.152;5.846;2023-07-13T07:03:37;19.00;74.20
52787;DHT22;38661;53.152;5.846;2023-07-13T07:06:18;19.00;73.20
52787;DHT22;38661;53.152;5.846;2023-07-13T07:08:43;19.10;72.80
52787;DHT22;38661;53.152;5.846;2023-07-13T07:11:13;19.10;72.60
52787;DHT22;38661;53.152;5.846;2023-07-13T07:13:39;19.10;72.70
52787;DHT22;38661;53.152;5.846;2023-07-13T07:16:04;19.30;72.20
52787;DHT22;38661;53.152;5.846;2023-07-13T07:18:30;19.20;71.90
52787;DHT22;38661;53.152;5.846;2023-07-13T07:20:56;19.20;72.00
52787;DHT22;38661;53.152;5.846;2023-07-13T07:23:22;19.10;72.90
52787;DHT22;38661;53.152;5.846;2023-07-13T07:25:47;19.10;73.40
52787;DHT22;38661;53.152;5.846;2023-07-13T07:28:16;19.10;73.20
52787;DHT22;38661;53.152;5.846;2023-07-13T07:30:45;18.90;73.90
52787;DHT22;38661;53.152;5.846;2023-07-13T07:33:11;18.90;74.50
52787;DHT22;38661;53.152;5.846;2023-07-13T07:35:37;18.90;75.10
52787;DHT22;38661;53.152;5.846;2023-07-13T07:38:03;18.90;75.50
52787;DHT22;38661;53.152;5.846;2023-07-13T07:40:29;18.90;76.00
52787;DHT22;38661;53.152;5.846;2023-07-13T07:42:55;19.00;76.50
52787;DHT22;38661;53.152;5.846;2023-07-13T07:45:21;19.10;76.90
52787;DHT22;38661;53.152;5.846;2023-07-13T07:47:47;19.20;77.40
52787;DHT22;38661;53.152;5.846;2023-07-13T07:50:13;19.20;77.70
52787;DHT22;38661;53.152;5.846;2023-07-13T07:52:39;19.30;77.10
52787;DHT22;38661;53.152;5.846;2023-07-13T07:55:06;19.40;76.10
52787;DHT22;38661;53.152;5.846;2023-07-13T07:57:32;19.50;75.30
52787;DHT22;38661;53.152;5.846;2023-07-13T07:59:58;19.70;74.60
52787;DHT22;38661;53.152;5.846;2023-07-13T08:02:27;19.90;73.80
52787;DHT22;38661;53.152;5.846;2023-07-13T08:04:55;19.90;72.40
52787;DHT22;38661;53.152;5.846;2023-07-13T08:07:20;19.90;72.90
52787;DHT22;38661;53.152;5.846;2023-07-13T08:09:46;20.00;72.40
52787;DHT22;38661;53.152;5.846;2023-07-13T08:12:12;20.10;70.80
52787;DHT22;38661;53.152;5.846;2023-07-13T08:14:38;20.10;69.80
52787;DHT22;38661;53.152;5.846;2023-07-13T08:17:04;20.10;68.40
52787;DHT22;38661;53.152;5.846;2023-07-13T08:19:30;20.20;67.40
52787;DHT22;38661;53.152;5.846;2023-07-13T08:21:56;20.30;68.70
52787;DHT22;38661;53.152;5.846;2023-07-13T08:24:23;20.40;69.40
52787;DHT22;38661;53.152;5.846;2023-07-13T08:26:50;20.40;69.30
52787;DHT22;38661;53.152;5.846;2023-07-13T08:29:15;20.50;67.80
52787;DHT22;38661;53.152;5.846;2023-07-13T08:31:41;20.40;67.60
52787;DHT22;38661;53.152;5.846;2023-07-13T08:34:07;20.40;67.10
52787;DHT22;38661;53.152;5.846;2023-07-13T08:36:33;20.40;66.80
52787;DHT22;38661;53.152;5.846;2023-07-13T08:38:58;20.20;67.60
52787;DHT22;38661;53.152;5.846;2023-07-13T08:41:24;20.30;66.10
52787;DHT22;38661;53.152;5.846;2023-07-13T08:43:58;20.40;66.50
52787;DHT22;38661;53.152;5.846;2023-07-13T08:46:35;20.50;65.50
52787;DHT22;38661;53.152;5.846;2023-07-13T08:49:16;20.70;65.20
52787;DHT22;38661;53.152;5.846;2023-07-13T08:54:26;20.90;63.40
52787;DHT22;38661;53.152;5.846;2023-07-13T08:56:53;21.00;62.60
52787;DHT22;38661;53.152;5.846;2023-07-13T08:59:24;21.00;62.80
52787;DHT22;38661;53.152;5.846;2023-07-13T09:05:03;21.10;62.70
52787;DHT22;38661;53.152;5.846;2023-07-13T09:10:20;21.20;62.90
52787;DHT22;38661;53.152;5.846;2023-07-13T09:15:43;21.30;61.90
52787;DHT22;38661;53.152;5.846;2023-07-13T09:18:27;21.20;62.30
52787;DHT22;38661;53.152;5.846;2023-07-13T09:21:00;21.10;62.70
52787;DHT22;38661;53.152;5.846;2023-07-13T09:23:29;21.10;63.70
52787;DHT22;38661;53.152;5.846;2023-07-13T09:26:16;21.10;64.30
52787;DHT22;38661;53.152;5.846;2023-07-13T09:28:45;21.20;64.00
52787;DHT22;38661;53.152;5.846;2023-07-13T09:31:23;21.40;64.20
52787;DHT22;38661;53.152;5.846;2023-07-13T09:33:49;21.50;64.30
52787;DHT22;38661;53.152;5.846;2023-07-13T09:36:28;21.20;62.50
52787;DHT22;38661;53.152;5.846;2023-07-13T09:39:05;21.20;62.40
52787;DHT22;38661;53.152;5.846;2023-07-13T09:46:58;21.40;61.10
52787;DHT22;38661;53.152;5.846;2023-07-13T09:49:28;21.50;60.80
52787;DHT22;38661;53.152;5.846;2023-07-13T09:52:00;21.50;60.50
52787;DHT22;38661;53.152;5.846;2023-07-13T09:54:27;21.60;60.10
52787;DHT22;38661;53.152;5.846;2023-07-13T09:56:58;21.60;60.60
52787;DHT22;38661;53.152;5.846;2023-07-13T09:59:35;21.50;59.80
52787;DHT22;38661;53.152;5.846;2023-07-13T10:02:30;21.50;60.10
52787;DHT22;38661;53.152;5.846;2023-07-13T10:05:05;21.70;59.90
52787;DHT22;38661;53.152;5.846;2023-07-13T10:07:38;21.80;60.00
52787;DHT22;38661;53.152;5.846;2023-07-13T10:10:17;21.70;60.10
52787;DHT22;38661;53.152;5.846;2023-07-13T10:12:43;21.80;60.20
52787;DHT22;38661;53.152;5.846;2023-07-13T10:15:16;21.90;61.10
52787;DHT22;38661;53.152;5.846;2023-07-13T10:17:43;21.90;60.70
52787;DHT22;38661;53.152;5.846;2023-07-13T10:20:09;21.70;61.40
52787;DHT22;38661;53.152;5.846;2023-07-13T10:25:25;21.70;63.10
52787;DHT22;38661;53.152;5.846;2023-07-13T10:27:53;21.80;63.20
52787;DHT22;38661;53.152;5.846;2023-07-13T10:30:28;21.90;62.60
52787;DHT22;38661;53.152;5.846;2023-07-13T10:32:58;22.00;61.70
52787;DHT22;38661;53.152;5.846;2023-07-13T10:35:26;22.30;61.90
52787;DHT22;38661;53.152;5.846;2023-07-13T10:38:13;22.40;62.30
52787;DHT22;38661;53.152;5.846;2023-07-13T10:41:23;22.60;61.10
52787;DHT22;38661;53.152;5.846;2023-07-13T10:46:06;22.50;58.80
52787;DHT22;38661;53.152;5.846;2023-07-13T10:48:34;22.40;56.80
52787;DHT22;38661;53.152;5.846;2023-07-13T10:51:04;22.50;56.50
52787;DHT22;38661;53.152;5.846;2023-07-13T10:53:34;22.50;56.60
52787;DHT22;38661;53.152;5.846;2023-07-13T10:56:06;22.60;53.80
52787;DHT22;38661;53.152;5.846;2023-07-13T10:58:42;22.70;55.60
52787;DHT22;38661;53.152;5.846;2023-07-13T11:01:10;22.70;57.40
52787;DHT22;38661;53.152;5.846;2023-07-13T11:03:50;22.70;56.30
52787;DHT22;38661;53.152;5.846;2023-07-13T11:08:57;22.80;58.30
52787;DHT22;38661;53.152;5.846;2023-07-13T11:19:24;22.80;56.80
52787;DHT22;38661;53.152;5.846;2023-07-13T11:24:55;22.70;54.30
52787;DHT22;38661;53.152;5.846;2023-07-13T11:30:25;22.70;56.10
52787;DHT22;38661;53.152;5.846;2023-07-13T11:35:35;22.90;56.20
52787;DHT22;38661;53.152;5.846;2023-07-13T11:38:03;22.90;55.90
52787;DHT22;38661;53.152;5.846;2023-07-13T11:40:37;22.90;56.20
52787;DHT22;38661;53.152;5.846;2023-07-13T11:43:06;22.90;56.70
52787;DHT22;38661;53.152;5.846;2023-07-13T11:45:33;22.90;57.00
52787;DHT22;38661;53.152;5.846;2023-07-13T11:48:01;22.90;56.60
52787;DHT22;38661;53.152;5.846;2023-07-13T11:50:27;22.90;57.30
52787;DHT22;38661;53.152;5.846;2023-07-13T11:52:54;22.90;56.40
52787;DHT22;38661;53.152;5.846;2023-07-13T11:55:22;22.80;56.30
52787;DHT22;38661;53.152;5.846;2023-07-13T11:57:53;22.80;57.30
52787;DHT22;38661;53.152;5.846;2023-07-13T12:00:25;22.80;56.90
52787;DHT22;38661;53.152;5.846;2023-07-13T12:02:54;22.80;57.50
52787;DHT22;38661;53.152;5.846;2023-07-13T12:05:21;23.10;57.60
52787;DHT22;38661;53.152;5.846;2023-07-13T12:07:48;23.00;54.80
52787;DHT22;38661;53.152;5.846;2023-07-13T12:10:21;23.00;54.40
52787;DHT22;38661;53.152;5.846;2023-07-13T12:15:20;23.20;54.60
52787;DHT22;38661;53.152;5.846;2023-07-13T12:17:48;23.20;54.40
52787;DHT22;38661;53.152;5.846;2023-07-13T12:20:26;23.00;53.60
52787;DHT22;38661;53.152;5.846;2023-07-13T12:22:52;23.10;55.50
52787;DHT22;38661;53.152;5.846;2023-07-13T12:25:19;23.20;55.70
52787;DHT22;38661;53.152;5.846;2023-07-13T12:27:50;23.10;54.60
52787;DHT22;38661;53.152;5.846;2023-07-13T12:30:31;23.20;55.10
52787;DHT22;38661;53.152;5.846;2023-07-13T12:33:24;23.40;55.90
52787;DHT22;38661;53.152;5.846;2023-07-13T12:35:53;23.40;55.20
52787;DHT22;38661;53.152;5.846;2023-07-13T12:38:19;23.40;56.20
52787;DHT22;38661;53.152;5.846;2023-07-13T12:40:50;23.50;56.90
52787;DHT22;38661;53.152;5.846;2023-07-13T12:43:17;23.70;56.80
52787;DHT22;38661;53.152;5.846;2023-07-13T12:46:14;23.60;56.60
52787;DHT22;38661;53.152;5.846;2023-07-13T12:48:42;23.60;56.50
52787;DHT22;38661;53.152;5.846;2023-07-13T12:51:13;23.70;56.70
52787;DHT22;38661;53.152;5.846;2023-07-13T12:53:42;23.80;56.60
52787;DHT22;38661;53.152;5.846;2023-07-13T12:56:15;23.60;56.10
52787;DHT22;38661;53.152;5.846;2023-07-13T12:58:43;23.60;56.20
52787;DHT22;38661;53.152;5.846;2023-07-13T13:01:13;23.30;57.30
52787;DHT22;38661;53.152;5.846;2023-07-13T13:03:47;23.50;57.10
52787;DHT22;38661;53.152;5.846;2023-07-13T13:08:47;23.40;57.30
52787;DHT22;38661;53.152;5.846;2023-07-13T13:11:19;23.40;57.50
52787;DHT22;38661;53.152;5.846;2023-07-13T13:13:45;23.50;56.40
52787;DHT22;38661;53.152;5.846;2023-07-13T13:18:51;23.60;56.70
52787;DHT22;38661;53.152;5.846;2023-07-13T13:21:17;23.70;56.70
52787;DHT22;38661;53.152;5.846;2023-07-13T13:23:44;23.80;54.60
52787;DHT22;38661;53.152;5.846;2023-07-13T13:26:15;23.80;54.50
52787;DHT22;38661;53.152;5.846;2023-07-13T13:28:44;23.90;54.10
52787;DHT22;38661;53.152;5.846;2023-07-13T13:31:11;23.90;54.30
52787;DHT22;38661;53.152;5.846;2023-07-13T13:33:42;23.80;55.00
52787;DHT22;38661;53.152;5.846;2023-07-13T13:36:17;23.80;54.20
52787;DHT22;38661;53.152;5.846;2023-07-13T13:38:43;23.90;53.70
52787;DHT22;38661;53.152;5.846;2023-07-13T13:41:11;23.90;54.10
52787;DHT22;38661;53.152;5.846;2023-07-13T13:43:37;23.80;53.20
52787;DHT22;38661;53.152;5.846;2023-07-13T13:46:16;23.90;53.90
52787;DHT22;38661;53.152;5.846;2023-07-13T13:48:43;24.00;54.70
52787;DHT22;38661;53.152;5.846;2023-07-13T13:51:18;24.00;53.80
52787;DHT22;38661;53.152;5.846;2023-07-13T13:53:45;23.90;54.40
52787;DHT22;38661;53.152;5.846;2023-07-13T13:56:11;23.90;54.90
52787;DHT22;38661;53.152;5.846;2023-07-13T13:58:37;23.80;54.70
52787;DHT22;38661;53.152;5.846;2023-07-13T14:01:03;24.00;56.00
52787;DHT22;38661;53.152;5.846;2023-07-13T14:03:33;24.00;55.40
52787;DHT22;38661;53.152;5.846;2023-07-13T14:05:59;23.90;55.50
52787;DHT22;38661;53.152;5.846;2023-07-13T14:08:25;23.60;56.30
52787;DHT22;38661;53.152;5.846;2023-07-13T14:10:53;23.40;56.60
52787;DHT22;38661;53.152;5.846;2023-07-13T14:13:26;23.30;57.70
52787;DHT22;38661;53.152;5.846;2023-07-13T14:15:53;23.50;58.30
52787;DHT22;38661;53.152;5.846;2023-07-13T14:18:19;23.60;58.10
52787;DHT22;38661;53.152;5.846;2023-07-13T14:20:46;23.60;56.80
52787;DHT22;38661;53.152;5.846;2023-07-13T14:23:14;23.50;57.40
52787;DHT22;38661;53.152;5.846;2023-07-13T14:25:41;23.30;56.70
52787;DHT22;38661;53.152;5.846;2023-07-13T14:28:21;22.90;57.60
52787;DHT22;38661;53.152;5.846;2023-07-13T14:30:48;22.60;58.20
52787;DHT22;38661;53.152;5.846;2023-07-13T14:33:15;22.50;59.00
52787;DHT22;38661;53.152;5.846;2023-07-13T14:35:41;22.50;59.00
52787;DHT22;38661;53.152;5.846;2023-07-13T14:38:14;22.50;58.20
52787;DHT22;38661;53.152;5.846;2023-07-13T14:40:41;22.80;58.60
52787;DHT22;38661;53.152;5.846;2023-07-13T14:43:11;23.00;56.90
52787;DHT22;38661;53.152;5.846;2023-07-13T14:45:42;23.30;57.10
52787;DHT22;38661;53.152;5.846;2023-07-13T14:48:22;23.10;57.60
52787;DHT22;38661;53.152;5.846;2023-07-13T14:50:58;23.30;57.80
52787;DHT22;38661;53.152;5.846;2023-07-13T14:53:27;23.20;57.50
52787;DHT22;38661;53.152;5.846;2023-07-13T14:55:56;22.90;58.50
52787;DHT22;38661;53.152;5.846;2023-07-13T14:58:23;22.90;59.40
52787;DHT22;38661;53.152;5.846;2023-07-13T15:00:48;23.20;59.50
52787;DHT22;38661;53.152;5.846;2023-07-13T15:03:23;23.40;58.30
52787;DHT22;38661;53.152;5.846;2023-07-13T15:05:50;23.40;58.60
52787;DHT22;38661;53.152;5.846;2023-07-13T15:08:16;23.60;58.40
52787;DHT22;38661;53.152;5.846;2023-07-13T15:10:42;23.80;57.30
52787;DHT22;38661;53.152;5.846;2023-07-13T15:13:19;23.90;57.30
52787;DHT22;38661;53.152;5.846;2023-07-13T15:15:51;23.90;56.70
52787;DHT22;38661;53.152;5.846;2023-07-13T15:18:21;23.70;57.70
52787;DHT22;38661;53.152;5.846;2023-07-13T15:20:48;23.40;58.50
52787;DHT22;38661;53.152;5.846;2023-07-13T15:23:16;23.20;58.90
52787;DHT22;38661;53.152;5.846;2023-07-13T15:25:44;23.10;58.60
52787;DHT22;38661;53.152;5.846;2023-07-13T15:28:10;23.00;59.30
52787;DHT22;38661;53.152;5.846;2023-07-13T15:30:42;23.10;58.60
52787;DHT22;38661;53.152;5.846;2023-07-13T15:35:48;23.50;57.10
52787;DHT22;38661;53.152;5.846;2023-07-13T15:38:27;23.40;57.90
52787;DHT22;38661;53.152;5.846;2023-07-13T15:40:54;23.30;58.40
52787;DHT22;38661;53.152;5.846;2023-07-13T15:43:32;23.40;58.70
52787;DHT22;38661;53.152;5.846;2023-07-13T15:45:59;23.50;58.20
52787;DHT22;38661;53.152;5.846;2023-07-13T15:48:28;23.60;58.50
52787;DHT22;38661;53.152;5.846;2023-07-13T15:50:55;23.60;58.60
52787;DHT22;38661;53.152;5.846;2023-07-13T15:53:29;23.60;57.10
52787;DHT22;38661;53.152;5.846;2023-07-13T15:55:55;23.40;59.10
52787;DHT22;38661;53.152;5.846;2023-07-13T15:58:22;23.50;59.60
52787;DHT22;38661;53.152;5.846;2023-07-13T16:00:48;23.70;59.50
52787;DHT22;38661;53.152;5.846;2023-07-13T16:03:17;23.90;59.20
52787;DHT22;38661;53.152;5.846;2023-07-13T16:05:44;23.90;57.70
52787;DHT22;38661;53.152;5.846;2023-07-13T16:08:27;23.60;57.10
52787;DHT22;38661;53.152;5.846;2023-07-13T16:10:53;23.30;58.60
52787;DHT22;38661;53.152;5.846;2023-07-13T16:13:20;23.30;58.20
52787;DHT22;38661;53.152;5.846;2023-07-13T16:15:47;23.20;59.10
52787;DHT22;38661;53.152;5.846;2023-07-13T16:18:13;23.00;60.20
52787;DHT22;38661;53.152;5.846;2023-07-13T16:20:46;23.00;60.30
52787;DHT22;38661;53.152;5.846;2023-07-13T16:23:13;23.20;60.30
52787;DHT22;38661;53.152;5.846;2023-07-13T16:25:40;23.10;59.30
52787;DHT22;38661;53.152;5.846;2023-07-13T16:28:12;23.00;60.10
52787;DHT22;38661;53.152;5.846;2023-07-13T16:30:38;22.90;61.00